Norfolk, Virginia
Traffic Map
Current Weather Conditions
Norfolk, Virginia
Clear
Clear
23°
Feels Like: 23°
Wind Chill: 23° Ceiling: Unl
Heat Index: 23° Visibility: 8mi
Dew Point: 21° Wind: 0mph
Humidity: 87% Direction: ° ()
Pressure: 29.91in Gusts: 0mph
Raw Report DataKORF 031051Z AUTO 00000KT 8SM CLR 23/21 A2991 RMK AO2 SLP128 T02280206 TSNO
Traffic Incident Summary
Active as of:
Severity:
Category:
InformationThere was an issue retrieving the traffic information for this location. Please try a different location or try again shortly.
Advertisements
Track Severe Weather on mobile